createdAt,value
2018-11-14T00:01:09.672Z,4.63
2018-11-14T00:03:14.175Z,4.90
2018-11-14T00:05:18.495Z,5.20
2018-11-14T00:07:22.701Z,4.07
2018-11-14T00:09:27.034Z,4.47
2018-11-14T00:11:31.441Z,4.43
2018-11-14T00:13:35.751Z,4.83
2018-11-14T00:15:40.270Z,4.57
2018-11-14T00:17:45.542Z,4.00
2018-11-14T00:19:49.834Z,4.00
2018-11-14T00:21:54.246Z,3.87
2018-11-14T00:23:58.622Z,4.43
2018-11-14T00:26:14.456Z,5.17
2018-11-14T00:28:18.699Z,4.13
2018-11-14T00:30:25.060Z,4.30
2018-11-14T00:32:29.126Z,4.53
2018-11-14T00:34:33.759Z,4.50
2018-11-14T00:36:38.087Z,4.30
2018-11-14T00:38:42.478Z,3.63
2018-11-14T00:40:46.892Z,5.00
2018-11-14T00:42:51.294Z,4.40
2018-11-14T00:44:55.747Z,4.30
2018-11-14T00:47:00.018Z,4.27
2018-11-14T00:49:04.367Z,4.47
2018-11-14T00:51:08.663Z,4.67
2018-11-14T00:53:13.003Z,4.20
2018-11-14T00:55:19.257Z,4.57
2018-11-14T00:57:23.512Z,4.50
2018-11-14T00:59:27.887Z,4.47
2018-11-14T01:01:32.408Z,4.80
2018-11-14T01:03:37.044Z,4.40
2018-11-14T01:05:41.260Z,4.00
2018-11-14T01:07:45.465Z,4.73
2018-11-14T01:09:49.816Z,4.30
2018-11-14T01:11:54.172Z,5.30
2018-11-14T01:13:58.498Z,4.00
2018-11-14T01:16:02.990Z,4.20
2018-11-14T01:18:07.326Z,4.17
2018-11-14T01:20:13.776Z,4.33
2018-11-14T01:22:18.200Z,4.33
2018-11-14T01:24:22.491Z,4.73
2018-11-14T01:26:26.839Z,4.83
2018-11-14T01:28:31.606Z,4.23
2018-11-14T01:30:36.034Z,4.30
2018-11-14T01:32:40.296Z,4.67
2018-11-14T01:34:44.594Z,4.83
2018-11-14T01:36:49.040Z,4.53
2018-11-14T01:38:53.304Z,5.20
2018-11-14T01:40:57.448Z,4.53
2018-11-14T01:43:01.879Z,4.33
2018-11-14T01:45:09.243Z,4.20
2018-11-14T01:47:13.642Z,6.20
2018-11-14T01:49:18.105Z,4.13
2018-11-14T01:51:22.498Z,4.30
2018-11-14T01:53:26.706Z,4.63
2018-11-14T01:55:30.913Z,4.77
2018-11-14T01:57:35.446Z,4.30
2018-11-14T01:59:39.861Z,4.67
2018-11-14T02:01:53.878Z,4.60
2018-11-14T02:03:58.138Z,3.90
2018-11-14T02:06:02.493Z,4.20
2018-11-14T02:08:06.979Z,4.27
2018-11-14T02:10:13.768Z,4.40
2018-11-14T02:12:18.065Z,4.93
2018-11-14T02:14:22.495Z,4.90
2018-11-14T02:16:26.909Z,4.40
2018-11-14T02:18:31.535Z,4.57
2018-11-14T02:20:35.854Z,4.10
2018-11-14T02:22:40.599Z,4.50
2018-11-14T02:24:44.897Z,5.47
2018-11-14T02:26:49.111Z,4.30
2018-11-14T02:28:53.687Z,4.63
2018-11-14T02:30:57.936Z,4.43
2018-11-14T02:33:02.253Z,4.47
2018-11-14T02:35:07.541Z,4.37
2018-11-14T02:37:11.827Z,5.20
2018-11-14T02:39:16.123Z,4.90
2018-11-14T02:41:20.632Z,5.13
2018-11-14T02:43:24.832Z,5.80
2018-11-14T02:45:29.250Z,4.37
2018-11-14T02:47:33.566Z,4.67
2018-11-14T02:49:37.842Z,6.10
2018-11-14T02:51:42.225Z,4.47
2018-11-14T02:53:46.533Z,4.63
2018-11-14T02:56:04.105Z,4.70
2018-11-14T02:58:08.781Z,4.70
2018-11-14T03:00:15.139Z,5.47
2018-11-14T03:02:19.233Z,5.03
2018-11-14T03:04:23.578Z,5.00
2018-11-14T03:06:27.876Z,4.43
2018-11-14T03:08:32.397Z,5.03
2018-11-14T03:10:36.817Z,4.57
2018-11-14T03:12:41.236Z,3.80
2018-11-14T03:14:45.566Z,3.97
2018-11-14T03:16:50.061Z,4.43
2018-11-14T03:18:54.481Z,4.60
2018-11-14T03:20:58.580Z,3.90
2018-11-14T03:23:02.873Z,3.80
2018-11-14T03:25:08.241Z,4.20
2018-11-14T03:27:12.556Z,3.93
2018-11-14T03:29:16.767Z,4.10
2018-11-14T03:31:21.180Z,4.27
2018-11-14T03:33:25.488Z,5.10
2018-11-14T03:35:34.988Z,4.40
2018-11-14T03:37:39.440Z,4.47
2018-11-14T03:39:43.654Z,4.50
2018-11-14T03:41:48.115Z,4.30
2018-11-14T03:43:52.367Z,4.50
2018-11-14T03:45:57.024Z,5.37
2018-11-14T03:48:01.287Z,4.97
2018-11-14T03:50:06.363Z,4.70
2018-11-14T03:52:10.776Z,5.17
2018-11-14T03:54:15.889Z,5.23
2018-11-14T03:56:20.190Z,5.37
2018-11-14T03:58:24.931Z,5.30
2018-11-14T04:00:29.376Z,5.00
2018-11-14T04:02:33.569Z,5.57
2018-11-14T04:04:37.902Z,5.73
2018-11-14T04:06:42.203Z,5.77
2018-11-14T04:08:46.522Z,6.00
2018-11-14T04:10:51.045Z,6.23
2018-11-14T04:12:55.327Z,6.50
2018-11-14T04:14:59.674Z,5.03
2018-11-14T04:17:04.377Z,6.10
2018-11-14T04:19:09.157Z,5.13
2018-11-14T04:21:13.522Z,5.93
2018-11-14T04:23:17.927Z,5.90
2018-11-14T04:25:22.483Z,6.13
2018-11-14T04:27:26.969Z,5.50
2018-11-14T04:29:31.295Z,5.60
2018-11-14T04:31:35.532Z,5.83
2018-11-14T04:33:39.948Z,5.07
2018-11-14T04:35:44.464Z,6.00
2018-11-14T04:37:48.891Z,5.40
2018-11-14T04:39:53.302Z,5.43
2018-11-14T04:41:57.644Z,5.80
2018-11-14T04:44:01.921Z,5.73
2018-11-14T04:46:06.548Z,5.67
2018-11-14T04:48:10.998Z,4.60
2018-11-14T04:50:17.918Z,5.40
2018-11-14T04:52:22.172Z,5.37
2018-11-14T04:54:26.691Z,5.50
2018-11-14T04:56:31.063Z,5.70
2018-11-14T04:58:35.636Z,5.07
2018-11-14T05:00:39.935Z,5.63
2018-11-14T05:02:44.878Z,4.70
2018-11-14T05:04:49.355Z,5.20
2018-11-14T05:06:53.811Z,5.10
2018-11-14T05:08:58.131Z,5.70
2018-11-14T05:11:02.616Z,5.53
2018-11-14T05:13:07.088Z,5.37
2018-11-14T05:15:13.371Z,5.83
2018-11-14T05:17:17.819Z,5.60
2018-11-14T05:19:22.671Z,5.47
2018-11-14T05:21:27.080Z,5.37
2018-11-14T05:23:31.622Z,5.60
2018-11-14T05:25:36.033Z,5.70
2018-11-14T05:27:40.400Z,5.90
2018-11-14T05:29:44.926Z,5.80
2018-11-14T05:31:49.184Z,5.63
2018-11-14T05:33:53.563Z,5.80
2018-11-14T05:35:58.086Z,6.23
2018-11-14T05:38:02.436Z,6.00
2018-11-14T05:40:07.823Z,5.60
2018-11-14T05:42:12.169Z,5.87
2018-11-14T05:44:16.475Z,5.43
2018-11-14T05:46:20.762Z,6.33
2018-11-14T05:48:25.273Z,5.90
2018-11-14T05:50:29.603Z,7.10
2018-11-14T05:52:34.138Z,6.23
2018-11-14T05:54:38.582Z,6.40
2018-11-14T05:56:43.000Z,6.53
2018-11-14T05:58:47.420Z,5.50
2018-11-14T06:00:51.718Z,5.40
2018-11-14T06:02:56.033Z,5.77
2018-11-14T06:05:00.432Z,6.40
2018-11-14T06:07:04.797Z,5.87
2018-11-14T06:09:11.633Z,6.47
2018-11-14T06:11:16.159Z,6.47
2018-11-14T06:13:20.430Z,6.33
2018-11-14T06:15:24.909Z,6.93
2018-11-14T06:17:29.310Z,6.93
2018-11-14T06:19:33.636Z,7.50
2018-11-14T06:21:37.939Z,6.50
2018-11-14T06:23:42.596Z,6.50
2018-11-14T06:25:47.262Z,6.10
2018-11-14T06:27:52.704Z,6.73
2018-11-14T06:29:57.056Z,6.00
2018-11-14T06:32:01.392Z,6.67
2018-11-14T06:34:06.649Z,7.13
2018-11-14T06:36:11.033Z,5.40
2018-11-14T06:38:15.321Z,6.80
2018-11-14T06:40:19.715Z,5.77
2018-11-14T06:42:24.371Z,5.83
2018-11-14T06:44:28.730Z,6.37
2018-11-14T06:46:33.100Z,6.40
2018-11-14T06:48:37.405Z,6.33
2018-11-14T06:50:41.844Z,6.23
2018-11-14T06:52:47.133Z,6.40
2018-11-14T06:54:51.382Z,5.87
2018-11-14T06:56:55.723Z,6.40
2018-11-14T06:58:59.925Z,6.20
2018-11-14T07:01:04.288Z,5.70
2018-11-14T07:03:08.796Z,6.33
2018-11-14T07:05:14.678Z,6.40
2018-11-14T07:07:18.989Z,6.60
2018-11-14T07:09:23.095Z,6.63
2018-11-14T07:11:27.219Z,6.17
2018-11-14T07:13:31.600Z,6.33
2018-11-14T07:15:36.837Z,7.87
2018-11-14T07:17:41.448Z,5.90
2018-11-14T07:19:45.703Z,5.70
2018-11-14T07:21:49.881Z,5.97
2018-11-14T07:23:54.516Z,6.53
2018-11-14T07:25:58.986Z,6.13
2018-11-14T07:28:03.458Z,6.23
2018-11-14T07:30:11.769Z,6.90
2018-11-14T07:32:16.357Z,5.43
2018-11-14T07:34:20.578Z,5.33
2018-11-14T07:36:24.939Z,6.80
2018-11-14T07:38:34.958Z,6.43
2018-11-14T07:40:39.365Z,6.33
2018-11-14T07:42:43.931Z,7.30
2018-11-14T07:44:48.226Z,6.40
2018-11-14T07:46:52.457Z,6.43
2018-11-14T07:48:56.983Z,6.57
2018-11-14T07:51:01.528Z,6.50
2018-11-14T07:53:06.106Z,6.63
2018-11-14T07:55:11.507Z,5.97
2018-11-14T07:57:15.963Z,5.87
2018-11-14T07:59:20.381Z,6.30
2018-11-14T08:01:24.629Z,6.60
2018-11-14T08:03:28.910Z,4.83
2018-11-14T08:05:33.216Z,5.20
2018-11-14T08:07:37.635Z,5.30
2018-11-14T08:09:41.980Z,5.10
2018-11-14T08:11:46.341Z,5.20
2018-11-14T08:13:50.807Z,5.43
2018-11-14T08:15:56.962Z,5.90
2018-11-14T08:18:01.229Z,5.40
2018-11-14T08:20:07.674Z,5.60
2018-11-14T08:22:12.144Z,5.30
2018-11-14T08:24:16.537Z,6.10
2018-11-14T08:26:20.978Z,6.23
2018-11-14T08:28:25.397Z,6.03
2018-11-14T08:30:29.636Z,6.60
2018-11-14T08:32:33.830Z,5.57
2018-11-14T08:34:38.112Z,6.17
2018-11-14T08:36:42.556Z,7.57
2018-11-14T08:38:46.762Z,7.30
2018-11-14T08:40:51.075Z,6.70
2018-11-14T08:42:55.272Z,7.73
2018-11-14T08:44:59.691Z,6.67
2018-11-14T08:47:04.117Z,6.17
2018-11-14T08:49:08.474Z,6.53
2018-11-14T08:51:12.748Z,6.10
2018-11-14T08:53:17.066Z,6.30
2018-11-14T08:55:21.387Z,7.20
2018-11-14T08:57:25.669Z,6.37
2018-11-14T08:59:30.118Z,6.83
2018-11-14T09:01:34.711Z,5.50
2018-11-14T09:03:39.117Z,6.50
2018-11-14T09:05:43.487Z,6.30
2018-11-14T09:07:48.070Z,6.10
2018-11-14T09:09:52.300Z,5.70
2018-11-14T09:11:56.563Z,6.00
2018-11-14T09:14:00.944Z,6.67
2018-11-14T09:16:05.571Z,6.10
2018-11-14T09:18:09.970Z,6.47
2018-11-14T09:20:15.649Z,5.70
2018-11-14T09:22:20.146Z,6.00
2018-11-14T09:24:24.404Z,6.27
2018-11-14T09:26:28.645Z,6.00
2018-11-14T09:28:32.991Z,5.60
2018-11-14T09:30:37.375Z,6.27
2018-11-14T09:32:41.822Z,6.53
2018-11-14T09:34:46.255Z,6.27
2018-11-14T09:36:50.717Z,5.97
2018-11-14T09:38:55.393Z,5.50
2018-11-14T09:40:59.675Z,5.87
2018-11-14T09:43:03.909Z,6.10
2018-11-14T09:45:11.941Z,6.53
2018-11-14T09:47:16.680Z,6.27
2018-11-14T09:49:21.041Z,5.97
2018-11-14T09:51:25.356Z,5.33
2018-11-14T09:53:29.658Z,5.77
2018-11-14T09:55:34.109Z,5.53
2018-11-14T09:57:39.141Z,5.80
2018-11-14T09:59:43.462Z,5.77
2018-11-14T10:01:47.657Z,5.93
2018-11-14T10:03:52.041Z,6.00
2018-11-14T10:05:56.388Z,6.10
2018-11-14T10:08:00.853Z,5.90
2018-11-14T10:10:06.284Z,6.23
2018-11-14T10:12:10.502Z,5.80
2018-11-14T10:14:14.948Z,5.80
2018-11-14T10:16:19.383Z,6.07
2018-11-14T10:18:23.801Z,5.33
2018-11-14T10:20:28.106Z,5.70
2018-11-14T10:22:32.633Z,6.20
2018-11-14T10:24:36.947Z,5.27
2018-11-14T10:26:41.219Z,6.17
2018-11-14T10:28:45.558Z,5.63
2018-11-14T10:30:50.137Z,5.07
2018-11-14T10:32:54.632Z,5.97
2018-11-14T10:34:58.896Z,5.80
2018-11-14T10:37:03.265Z,5.57
2018-11-14T10:39:10.191Z,6.27
2018-11-14T10:41:14.525Z,5.47
2018-11-14T10:43:18.741Z,5.67
2018-11-14T10:45:24.038Z,5.67
2018-11-14T10:47:28.396Z,5.93
2018-11-14T10:49:32.840Z,6.07
2018-11-14T10:51:37.339Z,6.17
2018-11-14T10:53:41.737Z,5.40
2018-11-14T10:55:46.187Z,5.53
2018-11-14T10:57:50.908Z,6.60
2018-11-14T10:59:55.317Z,5.60
2018-11-14T11:02:04.704Z,5.60
2018-11-14T11:04:14.048Z,5.87
2018-11-14T11:06:48.867Z,5.70
2018-11-14T11:08:58.422Z,6.30
2018-11-14T11:11:07.741Z,6.00
2018-11-14T11:13:17.122Z,5.83
2018-11-14T11:15:24.371Z,5.57
2018-11-14T11:17:33.891Z,5.90
2018-11-14T11:19:38.249Z,6.17
2018-11-14T11:21:42.500Z,5.90
2018-11-14T11:23:46.951Z,5.80
2018-11-14T11:25:51.369Z,6.00
2018-11-14T11:27:55.906Z,5.60
2018-11-14T11:30:00.202Z,5.07
2018-11-14T11:32:04.925Z,5.10
2018-11-14T11:34:10.147Z,6.43
2018-11-14T11:36:14.499Z,5.40
2018-11-14T11:38:18.986Z,5.40
2018-11-14T11:40:23.336Z,5.00
2018-11-14T11:42:27.856Z,5.70
2018-11-14T11:44:32.295Z,5.03
2018-11-14T11:46:37.088Z,4.87
2018-11-14T11:48:41.519Z,5.30
2018-11-14T11:50:46.179Z,4.60
2018-11-14T11:52:50.664Z,5.10
2018-11-14T11:54:55.080Z,4.40
2018-11-14T11:56:59.600Z,4.87
2018-11-14T11:59:04.108Z,4.40
2018-11-14T12:01:08.502Z,4.40
2018-11-14T12:03:12.708Z,4.87
2018-11-14T12:05:17.068Z,4.83
2018-11-14T12:07:21.482Z,3.90
2018-11-14T12:09:25.786Z,4.30
2018-11-14T12:11:30.202Z,3.63
2018-11-14T12:13:34.572Z,4.73
2018-11-14T12:15:38.943Z,3.23
2018-11-14T12:17:43.672Z,3.57
2018-11-14T12:19:48.188Z,3.43
2018-11-14T12:21:52.691Z,3.93
2018-11-14T12:23:57.307Z,3.30
2018-11-14T12:26:01.743Z,3.10
2018-11-14T12:28:06.551Z,3.20
2018-11-14T12:30:12.856Z,3.60
2018-11-14T12:32:17.405Z,3.30
2018-11-14T12:34:21.809Z,2.80
2018-11-14T12:36:26.162Z,3.60
2018-11-14T12:38:30.534Z,3.20
2018-11-14T12:40:34.921Z,3.40
2018-11-14T12:42:39.327Z,3.27
2018-11-14T12:44:43.556Z,3.10
2018-11-14T12:46:48.057Z,3.37
2018-11-14T12:48:52.389Z,3.37
2018-11-14T12:50:56.667Z,4.40
2018-11-14T12:53:01.003Z,4.40
2018-11-14T12:55:05.708Z,4.87
2018-11-14T12:57:10.109Z,4.60
2018-11-14T12:59:14.597Z,4.50
2018-11-14T13:01:18.959Z,4.27
2018-11-14T13:03:23.327Z,4.57
2018-11-14T13:05:27.706Z,4.83
2018-11-14T13:07:32.053Z,5.93
2018-11-14T13:09:36.336Z,5.93
2018-11-14T13:11:40.751Z,6.30
2018-11-14T13:13:47.063Z,6.80
2018-11-14T13:15:51.515Z,5.83
2018-11-14T13:17:55.996Z,6.63
2018-11-14T13:20:01.201Z,6.80
2018-11-14T13:22:05.723Z,7.93
2018-11-14T13:24:13.888Z,8.07
2018-11-14T13:26:18.571Z,9.20
2018-11-14T13:28:22.978Z,8.23
2018-11-14T13:30:27.394Z,9.13
2018-11-14T13:32:32.184Z,7.50
2018-11-14T13:34:36.937Z,8.60
2018-11-14T13:36:41.246Z,10.10
2018-11-14T13:38:45.768Z,11.27
2018-11-14T13:40:49.798Z,10.67
2018-11-14T13:42:53.786Z,10.90
2018-11-14T13:44:58.019Z,11.20
2018-11-14T13:47:02.514Z,12.40
2018-11-14T13:49:06.866Z,11.93
2018-11-14T13:51:10.924Z,14.40
2018-11-14T13:53:15.448Z,15.40
2018-11-14T13:55:21.135Z,15.13
2018-11-14T13:57:25.421Z,15.47
2018-11-14T13:59:29.693Z,14.60
2018-11-14T14:01:34.032Z,13.73
2018-11-14T14:03:40.756Z,13.57
2018-11-14T14:05:45.096Z,14.83
2018-11-14T14:07:49.499Z,14.67
2018-11-14T14:09:53.940Z,15.33
2018-11-14T14:11:58.154Z,15.30
2018-11-14T14:14:07.838Z,14.00
2018-11-14T14:16:12.623Z,15.30
2018-11-14T14:18:16.869Z,14.40
2018-11-14T14:20:32.786Z,13.70
2018-11-14T14:22:37.120Z,14.73
2018-11-14T14:24:41.636Z,14.00
2018-11-14T14:26:47.521Z,13.63
2018-11-14T14:28:53.021Z,13.97
2018-11-14T14:30:57.469Z,13.30
2018-11-14T14:33:02.088Z,13.93
2018-11-14T14:35:07.585Z,14.20
2018-11-14T14:37:13.081Z,14.00
2018-11-14T14:39:18.899Z,15.23
2018-11-14T14:41:23.513Z,14.13
2018-11-14T14:43:27.881Z,14.23
2018-11-14T14:45:32.371Z,13.93
2018-11-14T14:47:36.911Z,13.40
2018-11-14T14:49:42.368Z,15.10
2018-11-14T14:51:47.020Z,12.70
2018-11-14T14:53:52.015Z,13.03
2018-11-14T14:55:56.425Z,13.10
2018-11-14T14:58:01.435Z,13.13
2018-11-14T15:00:10.284Z,12.17
2018-11-14T15:02:14.645Z,13.60
2018-11-14T15:04:19.071Z,12.93
2018-11-14T15:06:23.525Z,13.10
2018-11-14T15:08:28.898Z,13.67
2018-11-14T15:10:33.159Z,13.70
2018-11-14T15:12:37.516Z,13.83
2018-11-14T15:14:42.161Z,13.47
2018-11-14T15:16:46.709Z,14.10
2018-11-14T15:18:51.331Z,13.87
2018-11-14T15:20:55.872Z,14.23
2018-11-14T15:23:00.501Z,13.07
2018-11-14T15:25:05.327Z,13.97
2018-11-14T15:27:09.713Z,12.43
2018-11-14T15:29:15.891Z,13.27
2018-11-14T15:31:20.402Z,13.90
2018-11-14T15:33:24.984Z,12.70
2018-11-14T15:35:29.403Z,14.50
2018-11-14T15:37:33.877Z,12.27
2018-11-14T15:39:38.951Z,12.63
2018-11-14T15:41:43.153Z,12.10
2018-11-14T15:43:50.177Z,11.47
2018-11-14T15:45:54.747Z,10.57
2018-11-14T15:48:03.446Z,11.00
2018-11-14T15:50:19.482Z,11.67
2018-11-14T15:52:24.049Z,11.03
2018-11-14T15:54:28.496Z,10.87
2018-11-14T15:56:32.935Z,11.43
2018-11-14T15:58:37.387Z,10.80
2018-11-14T16:00:41.723Z,10.63
2018-11-14T16:02:46.348Z,10.97
2018-11-14T16:04:50.856Z,10.80
2018-11-14T16:06:55.772Z,11.10
2018-11-14T16:08:59.958Z,11.20
2018-11-14T16:11:04.465Z,11.70
2018-11-14T16:13:08.818Z,12.50
2018-11-14T16:15:15.509Z,12.80
2018-11-14T16:17:19.792Z,12.00
2018-11-14T16:19:24.239Z,12.57
2018-11-14T16:21:28.648Z,12.27
2018-11-14T16:23:33.028Z,12.10
2018-11-14T16:25:37.421Z,11.00
2018-11-14T16:27:42.668Z,11.37
2018-11-14T16:29:47.090Z,10.77
2018-11-14T16:31:51.614Z,10.73
2018-11-14T16:33:56.167Z,11.43
2018-11-14T16:36:00.994Z,10.63
2018-11-14T16:38:05.365Z,11.70
2018-11-14T16:40:13.217Z,11.80
2018-11-14T16:42:17.636Z,12.60
2018-11-14T16:44:22.278Z,11.63
2018-11-14T16:46:26.693Z,11.53
2018-11-14T16:48:31.878Z,13.10
2018-11-14T16:50:36.221Z,13.17
2018-11-14T16:52:40.526Z,12.80
2018-11-14T16:54:45.137Z,13.30
2018-11-14T16:56:49.599Z,12.60
2018-11-14T16:58:53.796Z,13.97
2018-11-14T17:00:58.174Z,12.10
2018-11-14T17:03:02.396Z,12.60
2018-11-14T17:05:06.914Z,12.30
2018-11-14T17:07:11.177Z,11.60
2018-11-14T17:09:15.558Z,11.37
2018-11-14T17:11:19.887Z,11.60
2018-11-14T17:13:24.300Z,12.47
2018-11-14T17:15:28.911Z,13.17
2018-11-14T17:17:33.207Z,13.50
2018-11-14T17:19:37.861Z,12.60
2018-11-14T17:21:42.257Z,12.23
2018-11-14T17:23:46.768Z,12.93
2018-11-14T17:25:51.191Z,12.30
2018-11-14T17:27:55.712Z,13.87
2018-11-14T17:30:00.534Z,14.60
2018-11-14T17:32:04.820Z,14.50
2018-11-14T17:34:09.184Z,14.30
2018-11-14T17:36:13.364Z,16.57
2018-11-14T17:38:17.695Z,15.17
2018-11-14T17:40:24.237Z,16.03
2018-11-14T17:42:28.890Z,15.00
2018-11-14T17:44:33.240Z,13.47
2018-11-14T17:46:37.616Z,13.77
2018-11-14T17:48:42.059Z,12.27
2018-11-14T17:50:46.486Z,12.47
2018-11-14T17:52:52.012Z,12.13
2018-11-14T17:54:56.882Z,13.10
2018-11-14T17:57:01.188Z,12.10
2018-11-14T17:59:06.385Z,13.20
2018-11-14T18:01:11.239Z,12.97
2018-11-14T18:03:15.590Z,16.83
2018-11-14T18:05:21.082Z,19.10
2018-11-14T18:07:25.386Z,18.90
2018-11-14T18:09:29.926Z,20.23
2018-11-14T18:11:34.612Z,20.40
2018-11-14T18:13:39.115Z,19.23
2018-11-14T18:15:43.471Z,18.73
2018-11-14T18:17:48.246Z,15.73
2018-11-14T18:19:52.715Z,14.80
2018-11-14T18:21:57.380Z,13.90
2018-11-14T18:24:01.846Z,14.00
2018-11-14T18:26:06.563Z,13.60
2018-11-14T18:28:11.032Z,13.07
2018-11-14T18:30:18.861Z,12.40
2018-11-14T18:32:23.510Z,13.00
2018-11-14T18:34:27.916Z,12.83
2018-11-14T18:36:32.511Z,11.57
2018-11-14T18:38:37.062Z,11.80
2018-11-14T18:40:41.650Z,10.90
2018-11-14T18:42:46.089Z,11.60
2018-11-14T18:44:50.523Z,10.33
2018-11-14T18:46:54.742Z,11.47
2018-11-14T18:48:59.124Z,11.00
2018-11-14T18:51:03.551Z,7.90
2018-11-14T18:53:07.972Z,8.23
2018-11-14T18:55:13.517Z,7.80
2018-11-14T18:57:19.076Z,7.57
2018-11-14T18:59:23.479Z,7.10
2018-11-14T19:01:27.909Z,7.03
2018-11-14T19:03:32.319Z,7.73
2018-11-14T19:05:36.619Z,6.40
2018-11-14T19:07:41.036Z,7.97
2018-11-14T19:09:45.752Z,6.07
2018-11-14T19:11:50.389Z,7.37
2018-11-14T19:13:54.695Z,8.00
2018-11-14T19:15:58.903Z,7.00
2018-11-14T19:18:03.461Z,6.57
2018-11-14T19:20:08.889Z,7.00
2018-11-14T19:22:13.294Z,7.20
2018-11-14T19:24:17.913Z,6.70
2018-11-14T19:26:22.217Z,6.43
2018-11-14T19:28:26.665Z,6.50
2018-11-14T19:30:33.442Z,6.00
2018-11-14T19:32:37.647Z,6.40
2018-11-14T19:34:42.256Z,6.87
2018-11-14T19:36:46.556Z,6.60
2018-11-14T19:38:50.981Z,7.40
2018-11-14T19:40:55.507Z,6.70
2018-11-14T19:43:01.435Z,7.30
2018-11-14T19:45:07.991Z,7.50
2018-11-14T19:47:12.651Z,6.87
2018-11-14T19:49:17.110Z,6.83
2018-11-14T19:51:21.392Z,7.10
2018-11-14T19:53:25.906Z,7.20
2018-11-14T19:55:30.564Z,7.43
2018-11-14T19:57:35.121Z,7.90
2018-11-14T19:59:42.975Z,8.40
2018-11-14T20:01:47.434Z,8.00
2018-11-14T20:03:52.006Z,7.40
2018-11-14T20:05:56.602Z,8.00
2018-11-14T20:08:01.007Z,7.63
2018-11-14T20:10:06.423Z,7.90
2018-11-14T20:12:10.681Z,8.90
2018-11-14T20:14:15.002Z,8.60
2018-11-14T20:16:19.673Z,8.40
2018-11-14T20:18:23.890Z,8.43
2018-11-14T20:20:31.679Z,9.07
2018-11-14T20:22:36.104Z,8.57
2018-11-14T20:24:40.413Z,8.83
2018-11-14T20:26:44.964Z,8.87
2018-11-14T20:28:49.297Z,8.50
2018-11-14T20:30:53.556Z,9.37
2018-11-14T20:32:59.216Z,10.10
2018-11-14T20:35:03.528Z,11.10
2018-11-14T20:37:08.030Z,9.20
2018-11-14T20:39:13.475Z,9.80
2018-11-14T20:41:18.013Z,9.03
2018-11-14T20:43:22.434Z,9.53
2018-11-14T20:45:28.208Z,9.70
2018-11-14T20:47:32.624Z,9.00
2018-11-14T20:49:37.154Z,10.00
2018-11-14T20:51:41.412Z,9.70
2018-11-14T20:53:45.768Z,9.30
2018-11-14T20:55:51.418Z,9.50
2018-11-14T20:57:55.672Z,9.90
2018-11-14T21:00:00.160Z,9.70
2018-11-14T21:02:04.421Z,10.50
2018-11-14T21:04:08.798Z,10.37
2018-11-14T21:06:13.090Z,10.57
2018-11-14T21:08:17.549Z,10.27
2018-11-14T21:10:23.560Z,10.07
2018-11-14T21:12:28.099Z,10.37
2018-11-14T21:14:32.506Z,10.43
2018-11-14T21:16:36.915Z,11.13
2018-11-14T21:18:41.546Z,10.80
2018-11-14T21:20:45.901Z,10.73
2018-11-14T21:22:50.283Z,11.10
2018-11-14T21:24:54.961Z,10.70
2018-11-14T21:26:59.329Z,11.70
2018-11-14T21:29:03.740Z,10.20
2018-11-14T21:31:08.041Z,11.50
2018-11-14T21:33:12.465Z,11.27
2018-11-14T21:35:20.886Z,11.33
2018-11-14T21:37:25.194Z,11.13
2018-11-14T21:39:29.523Z,12.00
2018-11-14T21:41:33.935Z,11.70
2018-11-14T21:43:38.260Z,10.60
2018-11-14T21:45:42.771Z,11.23
2018-11-14T21:47:52.502Z,11.30
2018-11-14T21:49:56.698Z,11.20
2018-11-14T21:52:01.132Z,11.07
2018-11-14T21:54:05.527Z,11.60
2018-11-14T21:56:09.901Z,12.33
2018-11-14T21:58:14.261Z,11.73
2018-11-14T22:00:22.796Z,11.87
2018-11-14T22:02:27.195Z,12.27
2018-11-14T22:04:31.484Z,12.67
2018-11-14T22:06:35.931Z,13.53
2018-11-14T22:08:40.202Z,12.60
2018-11-14T22:10:44.571Z,13.33
2018-11-14T22:12:49.221Z,13.80
2018-11-14T22:14:53.637Z,14.30
2018-11-14T22:16:57.897Z,13.63
2018-11-14T22:19:02.838Z,14.47
2018-11-14T22:21:07.234Z,14.57
2018-11-14T22:23:11.679Z,14.60
2018-11-14T22:25:17.246Z,14.40
2018-11-14T22:27:21.643Z,14.20
2018-11-14T22:29:26.013Z,15.40
2018-11-14T22:31:30.413Z,15.50
2018-11-14T22:33:34.681Z,15.20
2018-11-14T22:35:39.082Z,16.90
2018-11-14T22:37:43.313Z,15.17
2018-11-14T22:39:47.721Z,15.10
2018-11-14T22:41:52.140Z,15.20
2018-11-14T22:43:56.441Z,15.63
2018-11-14T22:46:00.604Z,15.50
2018-11-14T22:48:04.799Z,15.57
2018-11-14T22:50:10.315Z,15.83
2018-11-14T22:52:14.647Z,15.60
2018-11-14T22:54:19.053Z,16.30
2018-11-14T22:56:23.357Z,16.30
2018-11-14T22:58:27.626Z,15.60
2018-11-14T23:00:37.997Z,16.43
2018-11-14T23:02:42.581Z,15.43
2018-11-14T23:04:46.879Z,16.33
2018-11-14T23:06:51.066Z,16.43
2018-11-14T23:08:55.606Z,17.13
2018-11-14T23:11:00.029Z,16.57
2018-11-14T23:13:04.419Z,15.70
2018-11-14T23:15:09.252Z,17.30
2018-11-14T23:17:13.756Z,17.40
2018-11-14T23:19:18.247Z,18.20
2018-11-14T23:21:22.520Z,17.63
2018-11-14T23:23:26.725Z,18.10
2018-11-14T23:25:31.426Z,17.83
2018-11-14T23:27:35.844Z,17.83
2018-11-14T23:29:40.203Z,18.83
2018-11-14T23:31:44.609Z,17.63
2018-11-14T23:33:48.881Z,18.90
2018-11-14T23:35:53.459Z,19.23
2018-11-14T23:38:01.905Z,19.00
2018-11-14T23:40:07.488Z,18.30
2018-11-14T23:42:11.690Z,19.33
2018-11-14T23:44:15.920Z,18.97
2018-11-14T23:46:20.243Z,19.40
2018-11-14T23:48:24.518Z,19.20
2018-11-14T23:50:29.948Z,19.67
2018-11-14T23:52:34.197Z,20.40
2018-11-14T23:54:38.486Z,19.80
2018-11-14T23:56:42.848Z,21.63
2018-11-14T23:58:47.209Z,19.27
